ESSV/VBY METAR and TAF weather

Enter ICAO airport designator
Station Type Date Time Source
ESSV METAR 2022/01/26 20:50 UTC NOAA

ESSV 262050Z AUTO 25009KT 9999 NCD 03/01 Q1006


Station Type Date Time Source
ESSV Decoded METAR 2022/01/26 20:50 UTC NOAA

Visby Flygplats, Sweden (ESSV) 57-40N 018-21E 47M
Jan 26, 2022 - 03:50 PM EST / 2022.01.26 2050 UTC
Wind: from the WSW (250 degrees) at 10 MPH (9 KT):0
Visibility: greater than 7 mile(s):0
Temperature: 37 F (3 C)
Dew Point: 33 F (1 C)
Relative Humidity: 86%
Pressure (altimeter): 29.71 in. Hg (1006 hPa)
ob: ESSV 262050Z AUTO 25009KT 9999 NCD 03/01 Q1006
cycle: 21

Station Type Date Time Source
ESSV TAF 2017/09/20 09:39 UTC NOAA

TAF COR TAF COR ESSV 200840Z 2009/2021 10005KT 9999 BKN030 PROB40 2009/2016 4000 TS SHRA BKN015CB

Example: see airport list